sensor_id;sensor_type;location;lat;lon;timestamp;temperature;humidity
10848;DHT22;5477;48.806;9.154;2022-10-31T00:00:47;11.60;99.90
10848;DHT22;5477;48.806;9.154;2022-10-31T00:03:16;11.60;99.90
10848;DHT22;5477;48.806;9.154;2022-10-31T00:05:45;11.50;99.90
10848;DHT22;5477;48.806;9.154;2022-10-31T00:08:13;11.50;99.90
10848;DHT22;5477;48.806;9.154;2022-10-31T00:10:42;11.50;99.90
10848;DHT22;5477;48.806;9.154;2022-10-31T00:13:11;11.50;99.90
10848;DHT22;5477;48.806;9.154;2022-10-31T00:15:41;11.50;99.90
10848;DHT22;5477;48.806;9.154;2022-10-31T00:18:10;11.50;99.90
10848;DHT22;5477;48.806;9.154;2022-10-31T00:20:38;11.50;99.90
10848;DHT22;5477;48.806;9.154;2022-10-31T00:23:07;11.40;99.90
10848;DHT22;5477;48.806;9.154;2022-10-31T00:25:38;11.40;99.90
10848;DHT22;5477;48.806;9.154;2022-10-31T00:28:08;11.40;99.90
10848;DHT22;5477;48.806;9.154;2022-10-31T00:30:37;11.30;99.90
10848;DHT22;5477;48.806;9.154;2022-10-31T00:33:06;11.30;99.90
10848;DHT22;5477;48.806;9.154;2022-10-31T00:35:34;11.40;99.90
10848;DHT22;5477;48.806;9.154;2022-10-31T00:38:02;11.40;99.90
10848;DHT22;5477;48.806;9.154;2022-10-31T00:40:30;11.40;99.90
10848;DHT22;5477;48.806;9.154;2022-10-31T00:42:58;11.40;99.90
10848;DHT22;5477;48.806;9.154;2022-10-31T00:45:27;11.30;99.90
10848;DHT22;5477;48.806;9.154;2022-10-31T00:47:55;11.30;99.90
10848;DHT22;5477;48.806;9.154;2022-10-31T00:50:25;11.20;99.90
10848;DHT22;5477;48.806;9.154;2022-10-31T00:52:53;11.20;99.90
10848;DHT22;5477;48.806;9.154;2022-10-31T00:55:21;11.30;99.90
10848;DHT22;5477;48.806;9.154;2022-10-31T00:57:51;11.30;99.90
10848;DHT22;5477;48.806;9.154;2022-10-31T01:00:20;11.30;99.90
10848;DHT22;5477;48.806;9.154;2022-10-31T01:02:48;11.30;99.90
10848;DHT22;5477;48.806;9.154;2022-10-31T01:05:16;11.30;99.90
10848;DHT22;5477;48.806;9.154;2022-10-31T01:07:46;11.20;99.90
10848;DHT22;5477;48.806;9.154;2022-10-31T01:10:14;11.10;99.90
10848;DHT22;5477;48.806;9.154;2022-10-31T01:12:44;11.10;99.90
10848;DHT22;5477;48.806;9.154;2022-10-31T01:15:14;11.10;99.90
10848;DHT22;5477;48.806;9.154;2022-10-31T01:17:42;11.10;99.90
10848;DHT22;5477;48.806;9.154;2022-10-31T01:20:13;11.10;99.90
10848;DHT22;5477;48.806;9.154;2022-10-31T01:22:41;11.10;99.90
10848;DHT22;5477;48.806;9.154;2022-10-31T01:25:10;11.20;99.90
10848;DHT22;5477;48.806;9.154;2022-10-31T01:27:38;11.20;99.90
10848;DHT22;5477;48.806;9.154;2022-10-31T01:30:07;11.10;99.90
10848;DHT22;5477;48.806;9.154;2022-10-31T01:32:35;11.10;99.90
10848;DHT22;5477;48.806;9.154;2022-10-31T01:35:04;11.10;99.90
10848;DHT22;5477;48.806;9.154;2022-10-31T01:37:32;11.10;99.90
10848;DHT22;5477;48.806;9.154;2022-10-31T01:40:00;11.00;99.90
10848;DHT22;5477;48.806;9.154;2022-10-31T01:42:29;11.00;99.90
10848;DHT22;5477;48.806;9.154;2022-10-31T01:44:59;11.00;99.90
10848;DHT22;5477;48.806;9.154;2022-10-31T01:47:34;11.00;99.90
10848;DHT22;5477;48.806;9.154;2022-10-31T01:50:11;11.10;99.90
10848;DHT22;5477;48.806;9.154;2022-10-31T01:52:41;11.10;99.90
10848;DHT22;5477;48.806;9.154;2022-10-31T01:55:13;11.10;99.90
10848;DHT22;5477;48.806;9.154;2022-10-31T01:57:47;11.10;99.90
10848;DHT22;5477;48.806;9.154;2022-10-31T02:00:17;11.10;99.90
10848;DHT22;5477;48.806;9.154;2022-10-31T02:02:47;11.10;99.90
10848;DHT22;5477;48.806;9.154;2022-10-31T02:05:18;11.20;99.90
10848;DHT22;5477;48.806;9.154;2022-10-31T02:07:51;11.20;99.90
10848;DHT22;5477;48.806;9.154;2022-10-31T02:10:27;11.20;99.90
10848;DHT22;5477;48.806;9.154;2022-10-31T02:13:00;11.10;99.90
10848;DHT22;5477;48.806;9.154;2022-10-31T02:15:30;11.10;99.90
10848;DHT22;5477;48.806;9.154;2022-10-31T02:17:58;11.00;99.90
10848;DHT22;5477;48.806;9.154;2022-10-31T02:20:32;10.90;99.90
10848;DHT22;5477;48.806;9.154;2022-10-31T02:23:28;10.90;99.90
10848;DHT22;5477;48.806;9.154;2022-10-31T02:26:23;10.90;99.90
10848;DHT22;5477;48.806;9.154;2022-10-31T02:29:27;10.90;99.90
10848;DHT22;5477;48.806;9.154;2022-10-31T02:32:07;10.90;99.90
10848;DHT22;5477;48.806;9.154;2022-10-31T02:34:44;10.90;99.90
10848;DHT22;5477;48.806;9.154;2022-10-31T02:37:20;10.90;99.90
10848;DHT22;5477;48.806;9.154;2022-10-31T02:39:58;11.00;99.90
10848;DHT22;5477;48.806;9.154;2022-10-31T02:42:57;11.00;99.90
10848;DHT22;5477;48.806;9.154;2022-10-31T02:45:30;11.00;99.90
10848;DHT22;5477;48.806;9.154;2022-10-31T02:48:06;11.10;99.90
10848;DHT22;5477;48.806;9.154;2022-10-31T02:50:39;11.10;99.90
10848;DHT22;5477;48.806;9.154;2022-10-31T02:53:09;11.00;99.90
10848;DHT22;5477;48.806;9.154;2022-10-31T02:55:55;10.90;99.90
10848;DHT22;5477;48.806;9.154;2022-10-31T02:58:27;10.90;99.90
10848;DHT22;5477;48.806;9.154;2022-10-31T03:01:09;10.80;99.90
10848;DHT22;5477;48.806;9.154;2022-10-31T03:03:51;10.80;99.90
10848;DHT22;5477;48.806;9.154;2022-10-31T03:06:27;10.80;99.90
10848;DHT22;5477;48.806;9.154;2022-10-31T03:09:05;10.90;99.90
10848;DHT22;5477;48.806;9.154;2022-10-31T03:11:43;10.80;99.90
10848;DHT22;5477;48.806;9.154;2022-10-31T03:14:19;10.70;99.90
10848;DHT22;5477;48.806;9.154;2022-10-31T03:16:56;10.70;99.90
10848;DHT22;5477;48.806;9.154;2022-10-31T03:19:31;10.70;99.90
10848;DHT22;5477;48.806;9.154;2022-10-31T03:22:04;10.70;99.90
10848;DHT22;5477;48.806;9.154;2022-10-31T03:24:37;10.60;99.90
10848;DHT22;5477;48.806;9.154;2022-10-31T03:27:08;10.60;99.90
10848;DHT22;5477;48.806;9.154;2022-10-31T03:29:38;10.60;99.90
10848;DHT22;5477;48.806;9.154;2022-10-31T03:32:10;10.60;99.90
10848;DHT22;5477;48.806;9.154;2022-10-31T03:34:42;10.70;99.90
10848;DHT22;5477;48.806;9.154;2022-10-31T03:37:13;10.60;99.90
10848;DHT22;5477;48.806;9.154;2022-10-31T03:39:44;10.60;99.90
10848;DHT22;5477;48.806;9.154;2022-10-31T03:42:15;10.60;99.90
10848;DHT22;5477;48.806;9.154;2022-10-31T03:44:46;10.60;99.90
10848;DHT22;5477;48.806;9.154;2022-10-31T03:47:17;10.60;99.90
10848;DHT22;5477;48.806;9.154;2022-10-31T03:49:49;10.50;99.90
10848;DHT22;5477;48.806;9.154;2022-10-31T03:52:24;10.50;99.90
10848;DHT22;5477;48.806;9.154;2022-10-31T03:54:57;10.50;99.90
10848;DHT22;5477;48.806;9.154;2022-10-31T03:57:35;10.60;99.90
10848;DHT22;5477;48.806;9.154;2022-10-31T04:00:07;10.50;99.90
10848;DHT22;5477;48.806;9.154;2022-10-31T04:02:49;10.50;99.90
10848;DHT22;5477;48.806;9.154;2022-10-31T04:05:20;10.60;99.90
10848;DHT22;5477;48.806;9.154;2022-10-31T04:07:53;10.70;99.90
10848;DHT22;5477;48.806;9.154;2022-10-31T04:10:23;10.60;99.90
10848;DHT22;5477;48.806;9.154;2022-10-31T04:13:03;10.60;99.90
10848;DHT22;5477;48.806;9.154;2022-10-31T04:15:54;10.50;99.90
10848;DHT22;5477;48.806;9.154;2022-10-31T04:18:22;10.50;99.90
10848;DHT22;5477;48.806;9.154;2022-10-31T04:20:59;10.40;99.90
10848;DHT22;5477;48.806;9.154;2022-10-31T04:23:28;10.40;99.90
10848;DHT22;5477;48.806;9.154;2022-10-31T04:25:57;10.40;99.90
10848;DHT22;5477;48.806;9.154;2022-10-31T04:28:25;10.50;99.90
10848;DHT22;5477;48.806;9.154;2022-10-31T04:30:53;10.50;99.90
10848;DHT22;5477;48.806;9.154;2022-10-31T04:33:21;10.50;99.90
10848;DHT22;5477;48.806;9.154;2022-10-31T04:35:49;10.50;99.90
10848;DHT22;5477;48.806;9.154;2022-10-31T04:38:19;10.50;99.90
10848;DHT22;5477;48.806;9.154;2022-10-31T04:40:48;10.50;99.90
10848;DHT22;5477;48.806;9.154;2022-10-31T04:43:45;10.40;99.90
10848;DHT22;5477;48.806;9.154;2022-10-31T04:46:14;10.50;99.90
10848;DHT22;5477;48.806;9.154;2022-10-31T04:48:42;10.50;99.90
10848;DHT22;5477;48.806;9.154;2022-10-31T04:51:10;10.50;99.90
10848;DHT22;5477;48.806;9.154;2022-10-31T04:53:40;10.40;99.90
10848;DHT22;5477;48.806;9.154;2022-10-31T04:56:23;10.40;99.90
10848;DHT22;5477;48.806;9.154;2022-10-31T04:58:56;10.40;99.90
10848;DHT22;5477;48.806;9.154;2022-10-31T05:01:27;10.30;99.90
10848;DHT22;5477;48.806;9.154;2022-10-31T05:03:57;10.20;99.90
10848;DHT22;5477;48.806;9.154;2022-10-31T05:06:25;10.20;99.90
10848;DHT22;5477;48.806;9.154;2022-10-31T05:08:55;10.20;99.90
10848;DHT22;5477;48.806;9.154;2022-10-31T05:11:23;10.20;99.90
10848;DHT22;5477;48.806;9.154;2022-10-31T05:13:54;10.10;99.90
10848;DHT22;5477;48.806;9.154;2022-10-31T05:16:41;10.10;99.90
10848;DHT22;5477;48.806;9.154;2022-10-31T05:19:27;10.00;99.90
10848;DHT22;5477;48.806;9.154;2022-10-31T05:22:16;10.00;99.90
10848;DHT22;5477;48.806;9.154;2022-10-31T05:24:45;10.00;99.90
10848;DHT22;5477;48.806;9.154;2022-10-31T05:27:13;10.00;99.90
10848;DHT22;5477;48.806;9.154;2022-10-31T05:29:41;10.10;99.90
10848;DHT22;5477;48.806;9.154;2022-10-31T05:32:09;10.10;99.90
10848;DHT22;5477;48.806;9.154;2022-10-31T05:34:55;10.10;99.90
10848;DHT22;5477;48.806;9.154;2022-10-31T05:37:43;10.10;99.90
10848;DHT22;5477;48.806;9.154;2022-10-31T05:40:14;10.10;99.90
10848;DHT22;5477;48.806;9.154;2022-10-31T05:42:43;10.00;99.90
10848;DHT22;5477;48.806;9.154;2022-10-31T05:45:14;10.00;99.90
10848;DHT22;5477;48.806;9.154;2022-10-31T05:47:50;9.90;99.90
10848;DHT22;5477;48.806;9.154;2022-10-31T05:50:48;9.90;99.90
10848;DHT22;5477;48.806;9.154;2022-10-31T05:53:16;9.90;99.90
10848;DHT22;5477;48.806;9.154;2022-10-31T05:55:46;10.00;99.90
10848;DHT22;5477;48.806;9.154;2022-10-31T05:58:18;10.10;99.90
10848;DHT22;5477;48.806;9.154;2022-10-31T06:01:05;10.10;99.90
10848;DHT22;5477;48.806;9.154;2022-10-31T06:03:33;10.00;99.90
10848;DHT22;5477;48.806;9.154;2022-10-31T06:06:03;10.00;99.90
10848;DHT22;5477;48.806;9.154;2022-10-31T06:08:41;9.90;99.90
10848;DHT22;5477;48.806;9.154;2022-10-31T06:11:15;9.90;99.90
10848;DHT22;5477;48.806;9.154;2022-10-31T06:14:02;9.80;99.90
10848;DHT22;5477;48.806;9.154;2022-10-31T06:16:40;9.80;99.90
10848;DHT22;5477;48.806;9.154;2022-10-31T06:19:31;9.80;99.90
10848;DHT22;5477;48.806;9.154;2022-10-31T06:21:59;9.80;99.90
10848;DHT22;5477;48.806;9.154;2022-10-31T06:24:28;9.80;99.90
10848;DHT22;5477;48.806;9.154;2022-10-31T06:27:05;9.80;99.90
10848;DHT22;5477;48.806;9.154;2022-10-31T06:29:33;9.80;99.90
10848;DHT22;5477;48.806;9.154;2022-10-31T06:32:11;9.80;99.90
10848;DHT22;5477;48.806;9.154;2022-10-31T06:34:43;9.80;99.90
10848;DHT22;5477;48.806;9.154;2022-10-31T06:37:11;9.90;99.90
10848;DHT22;5477;48.806;9.154;2022-10-31T06:39:43;9.90;99.90
10848;DHT22;5477;48.806;9.154;2022-10-31T06:42:16;10.00;99.90
10848;DHT22;5477;48.806;9.154;2022-10-31T06:44:45;10.10;99.90
10848;DHT22;5477;48.806;9.154;2022-10-31T06:47:39;10.10;99.90
10848;DHT22;5477;48.806;9.154;2022-10-31T06:50:30;10.10;99.90
10848;DHT22;5477;48.806;9.154;2022-10-31T06:52:58;10.10;99.90
10848;DHT22;5477;48.806;9.154;2022-10-31T06:55:27;10.10;99.90
10848;DHT22;5477;48.806;9.154;2022-10-31T06:57:58;10.10;99.90
10848;DHT22;5477;48.806;9.154;2022-10-31T07:00:30;10.10;99.90
10848;DHT22;5477;48.806;9.154;2022-10-31T07:03:06;10.00;99.90
10848;DHT22;5477;48.806;9.154;2022-10-31T07:05:35;10.10;99.90
10848;DHT22;5477;48.806;9.154;2022-10-31T07:08:05;10.20;99.90
10848;DHT22;5477;48.806;9.154;2022-10-31T07:10:36;10.20;99.90
10848;DHT22;5477;48.806;9.154;2022-10-31T07:13:11;10.30;99.90
10848;DHT22;5477;48.806;9.154;2022-10-31T07:15:42;10.40;99.90
10848;DHT22;5477;48.806;9.154;2022-10-31T07:18:11;10.60;99.90
10848;DHT22;5477;48.806;9.154;2022-10-31T07:20:39;10.70;99.90
10848;DHT22;5477;48.806;9.154;2022-10-31T07:23:09;10.70;99.90
10848;DHT22;5477;48.806;9.154;2022-10-31T07:25:37;10.70;99.90
10848;DHT22;5477;48.806;9.154;2022-10-31T07:28:15;10.80;99.90
10848;DHT22;5477;48.806;9.154;2022-10-31T07:30:49;10.80;99.90
10848;DHT22;5477;48.806;9.154;2022-10-31T07:33:19;10.80;99.90
10848;DHT22;5477;48.806;9.154;2022-10-31T07:36:14;10.80;99.90
10848;DHT22;5477;48.806;9.154;2022-10-31T07:38:44;10.80;99.90
10848;DHT22;5477;48.806;9.154;2022-10-31T07:41:13;10.80;99.90
10848;DHT22;5477;48.806;9.154;2022-10-31T07:43:45;10.90;99.90
10848;DHT22;5477;48.806;9.154;2022-10-31T07:46:16;11.00;99.90
10848;DHT22;5477;48.806;9.154;2022-10-31T07:49:03;11.10;99.90
10848;DHT22;5477;48.806;9.154;2022-10-31T07:51:49;11.30;99.90
10848;DHT22;5477;48.806;9.154;2022-10-31T07:54:43;11.40;99.90
10848;DHT22;5477;48.806;9.154;2022-10-31T07:57:11;11.60;99.90
10848;DHT22;5477;48.806;9.154;2022-10-31T07:59:40;11.70;99.90
10848;DHT22;5477;48.806;9.154;2022-10-31T08:02:10;11.80;99.90
10848;DHT22;5477;48.806;9.154;2022-10-31T08:04:47;11.90;99.90
10848;DHT22;5477;48.806;9.154;2022-10-31T08:07:38;12.00;99.90
10848;DHT22;5477;48.806;9.154;2022-10-31T08:10:12;12.20;99.90
10848;DHT22;5477;48.806;9.154;2022-10-31T08:12:40;12.30;99.90
10848;DHT22;5477;48.806;9.154;2022-10-31T08:15:10;12.40;99.90
10848;DHT22;5477;48.806;9.154;2022-10-31T08:17:38;12.50;99.90
10848;DHT22;5477;48.806;9.154;2022-10-31T08:20:08;12.50;99.90
10848;DHT22;5477;48.806;9.154;2022-10-31T08:22:42;12.60;99.90
10848;DHT22;5477;48.806;9.154;2022-10-31T08:25:10;12.70;99.90
10848;DHT22;5477;48.806;9.154;2022-10-31T08:27:38;12.70;99.90
10848;DHT22;5477;48.806;9.154;2022-10-31T08:30:15;12.80;99.90
10848;DHT22;5477;48.806;9.154;2022-10-31T08:33:03;12.90;99.90
10848;DHT22;5477;48.806;9.154;2022-10-31T08:35:54;12.90;99.90
10848;DHT22;5477;48.806;9.154;2022-10-31T08:38:41;13.00;99.90
10848;DHT22;5477;48.806;9.154;2022-10-31T08:41:10;13.00;99.90
10848;DHT22;5477;48.806;9.154;2022-10-31T08:43:38;13.00;99.90
10848;DHT22;5477;48.806;9.154;2022-10-31T08:46:07;13.10;99.90
10848;DHT22;5477;48.806;9.154;2022-10-31T08:48:36;13.20;99.90
10848;DHT22;5477;48.806;9.154;2022-10-31T08:51:05;13.30;99.90
10848;DHT22;5477;48.806;9.154;2022-10-31T08:53:33;13.40;99.90
10848;DHT22;5477;48.806;9.154;2022-10-31T08:56:30;13.40;99.90
10848;DHT22;5477;48.806;9.154;2022-10-31T08:58:59;13.50;99.90
10848;DHT22;5477;48.806;9.154;2022-10-31T09:02:01;13.50;99.90
10848;DHT22;5477;48.806;9.154;2022-10-31T09:04:29;13.60;99.90
10848;DHT22;5477;48.806;9.154;2022-10-31T09:06:57;13.80;99.90
10848;DHT22;5477;48.806;9.154;2022-10-31T09:09:45;13.90;99.90
10848;DHT22;5477;48.806;9.154;2022-10-31T09:12:13;14.00;99.90
10848;DHT22;5477;48.806;9.154;2022-10-31T09:15:05;14.10;99.90
10848;DHT22;5477;48.806;9.154;2022-10-31T09:17:47;14.20;99.90
10848;DHT22;5477;48.806;9.154;2022-10-31T09:20:23;14.30;99.90
10848;DHT22;5477;48.806;9.154;2022-10-31T09:22:56;14.40;99.90
10848;DHT22;5477;48.806;9.154;2022-10-31T09:25:25;14.60;99.90
10848;DHT22;5477;48.806;9.154;2022-10-31T09:28:15;14.70;99.90
10848;DHT22;5477;48.806;9.154;2022-10-31T09:30:46;14.70;99.90
10848;DHT22;5477;48.806;9.154;2022-10-31T09:33:22;14.70;99.90
10848;DHT22;5477;48.806;9.154;2022-10-31T09:36:10;14.80;99.90
10848;DHT22;5477;48.806;9.154;2022-10-31T09:38:40;14.90;99.90
10848;DHT22;5477;48.806;9.154;2022-10-31T09:41:19;15.00;99.90
10848;DHT22;5477;48.806;9.154;2022-10-31T09:43:54;15.00;99.90
10848;DHT22;5477;48.806;9.154;2022-10-31T09:46:33;15.10;99.90
10848;DHT22;5477;48.806;9.154;2022-10-31T09:49:27;15.20;99.90
10848;DHT22;5477;48.806;9.154;2022-10-31T09:52:01;15.30;99.90
10848;DHT22;5477;48.806;9.154;2022-10-31T09:54:36;15.30;99.90
10848;DHT22;5477;48.806;9.154;2022-10-31T09:57:12;15.40;99.90
10848;DHT22;5477;48.806;9.154;2022-10-31T09:59:43;15.40;99.90
10848;DHT22;5477;48.806;9.154;2022-10-31T10:02:17;15.40;99.90
10848;DHT22;5477;48.806;9.154;2022-10-31T10:04:54;15.60;99.90
10848;DHT22;5477;48.806;9.154;2022-10-31T10:07:32;15.80;99.90
10848;DHT22;5477;48.806;9.154;2022-10-31T10:10:25;15.90;99.90
10848;DHT22;5477;48.806;9.154;2022-10-31T10:13:26;16.10;99.90
10848;DHT22;5477;48.806;9.154;2022-10-31T10:16:06;16.20;99.90
10848;DHT22;5477;48.806;9.154;2022-10-31T10:18:44;16.30;99.90
10848;DHT22;5477;48.806;9.154;2022-10-31T10:21:25;16.40;99.90
10848;DHT22;5477;48.806;9.154;2022-10-31T10:24:03;16.50;99.90
10848;DHT22;5477;48.806;9.154;2022-10-31T10:26:36;16.50;99.90
10848;DHT22;5477;48.806;9.154;2022-10-31T10:29:17;16.50;99.90
10848;DHT22;5477;48.806;9.154;2022-10-31T10:31:49;16.70;99.90
10848;DHT22;5477;48.806;9.154;2022-10-31T10:34:22;16.90;99.90
10848;DHT22;5477;48.806;9.154;2022-10-31T10:36:56;17.00;99.90
10848;DHT22;5477;48.806;9.154;2022-10-31T10:39:29;17.00;99.90
10848;DHT22;5477;48.806;9.154;2022-10-31T10:41:59;17.10;99.90
10848;DHT22;5477;48.806;9.154;2022-10-31T10:44:47;17.20;99.90
10848;DHT22;5477;48.806;9.154;2022-10-31T10:47:39;17.40;99.90
10848;DHT22;5477;48.806;9.154;2022-10-31T10:50:13;17.70;99.90
10848;DHT22;5477;48.806;9.154;2022-10-31T10:52:48;17.70;99.90
10848;DHT22;5477;48.806;9.154;2022-10-31T10:55:27;17.80;99.90
10848;DHT22;5477;48.806;9.154;2022-10-31T10:58:00;17.80;99.90
10848;DHT22;5477;48.806;9.154;2022-10-31T11:00:31;17.90;99.90
10848;DHT22;5477;48.806;9.154;2022-10-31T11:02:59;17.80;99.90
10848;DHT22;5477;48.806;9.154;2022-10-31T11:05:33;17.80;99.90
10848;DHT22;5477;48.806;9.154;2022-10-31T11:08:03;17.90;99.90
10848;DHT22;5477;48.806;9.154;2022-10-31T11:10:32;17.90;99.90
10848;DHT22;5477;48.806;9.154;2022-10-31T11:13:20;17.80;99.90
10848;DHT22;5477;48.806;9.154;2022-10-31T11:15:53;17.80;99.90
10848;DHT22;5477;48.806;9.154;2022-10-31T11:18:25;17.80;99.90
10848;DHT22;5477;48.806;9.154;2022-10-31T11:20:55;17.60;99.90
10848;DHT22;5477;48.806;9.154;2022-10-31T11:23:26;17.60;99.90
10848;DHT22;5477;48.806;9.154;2022-10-31T11:25:56;17.60;99.90
10848;DHT22;5477;48.806;9.154;2022-10-31T11:28:25;17.80;99.90
10848;DHT22;5477;48.806;9.154;2022-10-31T11:30:55;18.10;99.90
10848;DHT22;5477;48.806;9.154;2022-10-31T11:33:28;18.40;99.90
10848;DHT22;5477;48.806;9.154;2022-10-31T11:35:57;18.50;99.90
10848;DHT22;5477;48.806;9.154;2022-10-31T11:38:32;18.50;99.90
10848;DHT22;5477;48.806;9.154;2022-10-31T11:41:08;18.50;99.90
10848;DHT22;5477;48.806;9.154;2022-10-31T11:43:38;18.50;99.90
10848;DHT22;5477;48.806;9.154;2022-10-31T11:46:11;18.60;99.90
10848;DHT22;5477;48.806;9.154;2022-10-31T11:48:39;18.70;99.90
10848;DHT22;5477;48.806;9.154;2022-10-31T11:51:07;18.80;99.90
10848;DHT22;5477;48.806;9.154;2022-10-31T11:53:37;18.90;99.90
10848;DHT22;5477;48.806;9.154;2022-10-31T11:56:12;19.00;99.90
10848;DHT22;5477;48.806;9.154;2022-10-31T11:58:40;19.10;99.90
10848;DHT22;5477;48.806;9.154;2022-10-31T12:01:24;19.20;99.90
10848;DHT22;5477;48.806;9.154;2022-10-31T12:04:01;19.40;99.90
10848;DHT22;5477;48.806;9.154;2022-10-31T12:06:34;19.50;99.90
10848;DHT22;5477;48.806;9.154;2022-10-31T12:09:22;19.60;99.90
10848;DHT22;5477;48.806;9.154;2022-10-31T12:12:05;19.70;99.90
10848;DHT22;5477;48.806;9.154;2022-10-31T12:14:42;19.70;99.90
10848;DHT22;5477;48.806;9.154;2022-10-31T12:17:15;19.60;99.90
10848;DHT22;5477;48.806;9.154;2022-10-31T12:19:50;19.60;99.90
10848;DHT22;5477;48.806;9.154;2022-10-31T12:22:29;19.50;99.90
10848;DHT22;5477;48.806;9.154;2022-10-31T12:25:21;19.50;99.90
10848;DHT22;5477;48.806;9.154;2022-10-31T12:28:00;19.40;99.90
10848;DHT22;5477;48.806;9.154;2022-10-31T12:30:40;19.40;99.90
10848;DHT22;5477;48.806;9.154;2022-10-31T12:33:26;19.30;99.90
10848;DHT22;5477;48.806;9.154;2022-10-31T12:36:09;19.20;99.90
10848;DHT22;5477;48.806;9.154;2022-10-31T12:39:07;19.20;99.90
10848;DHT22;5477;48.806;9.154;2022-10-31T12:41:49;19.30;99.90
10848;DHT22;5477;48.806;9.154;2022-10-31T12:44:40;19.20;99.90
10848;DHT22;5477;48.806;9.154;2022-10-31T12:47:35;19.10;99.90
10848;DHT22;5477;48.806;9.154;2022-10-31T12:50:18;19.00;99.90
10848;DHT22;5477;48.806;9.154;2022-10-31T12:52:57;19.00;99.90
10848;DHT22;5477;48.806;9.154;2022-10-31T12:55:48;18.90;99.90
10848;DHT22;5477;48.806;9.154;2022-10-31T12:58:25;18.80;99.90
10848;DHT22;5477;48.806;9.154;2022-10-31T13:01:04;18.70;99.90
10848;DHT22;5477;48.806;9.154;2022-10-31T13:03:42;18.60;99.90
10848;DHT22;5477;48.806;9.154;2022-10-31T13:06:18;18.60;99.90
10848;DHT22;5477;48.806;9.154;2022-10-31T13:08:51;18.50;99.90
10848;DHT22;5477;48.806;9.154;2022-10-31T13:11:42;18.40;99.90
10848;DHT22;5477;48.806;9.154;2022-10-31T13:14:17;18.40;99.90
10848;DHT22;5477;48.806;9.154;2022-10-31T13:16:48;18.30;99.90
10848;DHT22;5477;48.806;9.154;2022-10-31T13:19:18;18.30;99.90
10848;DHT22;5477;48.806;9.154;2022-10-31T13:21:55;18.30;99.90
10848;DHT22;5477;48.806;9.154;2022-10-31T13:24:30;18.20;99.90
10848;DHT22;5477;48.806;9.154;2022-10-31T13:27:03;18.20;99.90
10848;DHT22;5477;48.806;9.154;2022-10-31T13:29:35;18.10;99.90
10848;DHT22;5477;48.806;9.154;2022-10-31T13:32:06;18.20;99.90
10848;DHT22;5477;48.806;9.154;2022-10-31T13:34:37;18.20;99.90
10848;DHT22;5477;48.806;9.154;2022-10-31T13:37:14;18.10;99.90
10848;DHT22;5477;48.806;9.154;2022-10-31T13:40:01;18.20;99.90
10848;DHT22;5477;48.806;9.154;2022-10-31T13:42:45;18.40;99.90
10848;DHT22;5477;48.806;9.154;2022-10-31T13:45:20;18.70;99.90
10848;DHT22;5477;48.806;9.154;2022-10-31T13:47:56;18.80;99.90
10848;DHT22;5477;48.806;9.154;2022-10-31T13:50:27;18.80;99.90
10848;DHT22;5477;48.806;9.154;2022-10-31T13:53:18;18.90;99.90
10848;DHT22;5477;48.806;9.154;2022-10-31T13:55:48;19.00;99.90
10848;DHT22;5477;48.806;9.154;2022-10-31T13:58:22;19.00;99.90
10848;DHT22;5477;48.806;9.154;2022-10-31T14:01:15;19.10;99.90
10848;DHT22;5477;48.806;9.154;2022-10-31T14:03:46;19.10;99.90
10848;DHT22;5477;48.806;9.154;2022-10-31T14:06:44;19.20;99.90
10848;DHT22;5477;48.806;9.154;2022-10-31T14:09:20;19.20;99.90
10848;DHT22;5477;48.806;9.154;2022-10-31T14:11:56;19.30;99.90
10848;DHT22;5477;48.806;9.154;2022-10-31T14:14:33;19.20;99.90
10848;DHT22;5477;48.806;9.154;2022-10-31T14:17:04;19.30;99.90
10848;DHT22;5477;48.806;9.154;2022-10-31T14:19:33;19.30;99.90
10848;DHT22;5477;48.806;9.154;2022-10-31T14:22:01;19.30;99.90
10848;DHT22;5477;48.806;9.154;2022-10-31T14:24:34;19.30;99.90
10848;DHT22;5477;48.806;9.154;2022-10-31T14:27:29;19.20;99.90
10848;DHT22;5477;48.806;9.154;2022-10-31T14:29:52;19.10;99.90
10848;DHT22;5477;48.806;9.154;2022-10-31T14:32:24;19.10;99.90
10848;DHT22;5477;48.806;9.154;2022-10-31T14:34:53;19.20;99.90
10848;DHT22;5477;48.806;9.154;2022-10-31T14:37:38;19.10;99.90
10848;DHT22;5477;48.806;9.154;2022-10-31T14:40:19;19.00;99.90
10848;DHT22;5477;48.806;9.154;2022-10-31T14:43:20;19.00;99.90
10848;DHT22;5477;48.806;9.154;2022-10-31T14:45:57;19.00;99.90
10848;DHT22;5477;48.806;9.154;2022-10-31T14:51:35;18.80;99.90
10848;DHT22;5477;48.806;9.154;2022-10-31T14:54:05;18.90;99.90
10848;DHT22;5477;48.806;9.154;2022-10-31T14:56:36;19.20;99.90
10848;DHT22;5477;48.806;9.154;2022-10-31T14:59:08;19.50;99.90
10848;DHT22;5477;48.806;9.154;2022-10-31T15:01:38;19.70;99.90
10848;DHT22;5477;48.806;9.154;2022-10-31T15:04:13;19.70;99.90
10848;DHT22;5477;48.806;9.154;2022-10-31T15:06:53;19.60;99.90
10848;DHT22;5477;48.806;9.154;2022-10-31T15:09:23;19.50;99.90
10848;DHT22;5477;48.806;9.154;2022-10-31T15:11:51;19.30;99.90
10848;DHT22;5477;48.806;9.154;2022-10-31T15:14:23;19.00;99.90
10848;DHT22;5477;48.806;9.154;2022-10-31T15:16:51;18.80;99.90
10848;DHT22;5477;48.806;9.154;2022-10-31T15:19:23;18.60;99.90
10848;DHT22;5477;48.806;9.154;2022-10-31T15:21:54;18.40;99.90
10848;DHT22;5477;48.806;9.154;2022-10-31T15:24:24;18.30;99.90
10848;DHT22;5477;48.806;9.154;2022-10-31T15:26:53;18.20;99.90
10848;DHT22;5477;48.806;9.154;2022-10-31T15:29:28;18.10;99.90
10848;DHT22;5477;48.806;9.154;2022-10-31T15:31:58;18.00;99.90
10848;DHT22;5477;48.806;9.154;2022-10-31T15:34:32;17.90;99.90
10848;DHT22;5477;48.806;9.154;2022-10-31T15:37:02;17.80;99.90
10848;DHT22;5477;48.806;9.154;2022-10-31T15:39:31;17.70;99.90
10848;DHT22;5477;48.806;9.154;2022-10-31T15:41:59;17.60;99.90
10848;DHT22;5477;48.806;9.154;2022-10-31T15:44:29;17.40;99.90
10848;DHT22;5477;48.806;9.154;2022-10-31T15:46:59;17.20;99.90
10848;DHT22;5477;48.806;9.154;2022-10-31T15:49:33;17.10;99.90
10848;DHT22;5477;48.806;9.154;2022-10-31T15:52:06;16.90;99.90
10848;DHT22;5477;48.806;9.154;2022-10-31T15:54:40;16.70;99.90
10848;DHT22;5477;48.806;9.154;2022-10-31T15:57:10;16.50;99.90
10848;DHT22;5477;48.806;9.154;2022-10-31T15:59:40;16.50;99.90
10848;DHT22;5477;48.806;9.154;2022-10-31T16:02:11;16.40;99.90
10848;DHT22;5477;48.806;9.154;2022-10-31T16:04:50;16.30;99.90
10848;DHT22;5477;48.806;9.154;2022-10-31T16:07:19;16.30;99.90
10848;DHT22;5477;48.806;9.154;2022-10-31T16:09:54;16.30;99.90
10848;DHT22;5477;48.806;9.154;2022-10-31T16:12:33;16.10;99.90
10848;DHT22;5477;48.806;9.154;2022-10-31T16:15:03;16.00;99.90
10848;DHT22;5477;48.806;9.154;2022-10-31T16:17:31;15.90;99.90
10848;DHT22;5477;48.806;9.154;2022-10-31T16:20:04;15.80;99.90
10848;DHT22;5477;48.806;9.154;2022-10-31T16:22:35;15.70;99.90
10848;DHT22;5477;48.806;9.154;2022-10-31T16:25:08;15.60;99.90
10848;DHT22;5477;48.806;9.154;2022-10-31T16:27:38;15.50;99.90
10848;DHT22;5477;48.806;9.154;2022-10-31T16:30:28;15.40;99.90
10848;DHT22;5477;48.806;9.154;2022-10-31T16:32:58;15.30;99.90
10848;DHT22;5477;48.806;9.154;2022-10-31T16:35:34;15.20;99.90
10848;DHT22;5477;48.806;9.154;2022-10-31T16:38:02;15.10;99.90